sensor_id;sensor_type;location;lat;lon;timestamp;pressure;altitude;pressure_sealevel;temperature;humidity
39141;BME280;24875;48.436;10.298;2022-07-03T00:02:14;96536.50;;;16.91;nan
39141;BME280;24875;48.436;10.298;2022-07-03T00:04:41;96537.72;;;16.95;nan
39141;BME280;24875;48.436;10.298;2022-07-03T00:07:07;96544.72;;;16.89;nan
39141;BME280;24875;48.436;10.298;2022-07-03T00:09:34;96544.34;;;16.60;nan
39141;BME280;24875;48.436;10.298;2022-07-03T00:12:01;96546.41;;;16.51;nan
39141;BME280;24875;48.436;10.298;2022-07-03T00:14:28;96544.34;;;16.66;nan
39141;BME280;24875;48.436;10.298;2022-07-03T00:16:55;96553.34;;;16.72;nan
39141;BME280;24875;48.436;10.298;2022-07-03T00:19:22;96550.47;;;16.67;nan
39141;BME280;24875;48.436;10.298;2022-07-03T00:21:53;96544.94;;;16.68;nan
39141;BME280;24875;48.436;10.298;2022-07-03T00:24:24;96548.81;;;16.72;nan
39141;BME280;24875;48.436;10.298;2022-07-03T00:26:52;96547.19;;;16.84;nan
39141;BME280;24875;48.436;10.298;2022-07-03T00:29:20;96545.94;;;16.87;nan
39141;BME280;24875;48.436;10.298;2022-07-03T00:31:49;96546.16;;;16.92;nan
39141;BME280;24875;48.436;10.298;2022-07-03T00:34:17;96545.97;;;16.67;nan
39141;BME280;24875;48.436;10.298;2022-07-03T00:36:46;96539.41;;;16.83;nan
39141;BME280;24875;48.436;10.298;2022-07-03T00:39:13;96543.72;;;16.71;nan
39141;BME280;24875;48.436;10.298;2022-07-03T00:41:40;96547.56;;;16.81;nan
39141;BME280;24875;48.436;10.298;2022-07-03T00:44:07;96537.38;;;16.59;nan
39141;BME280;24875;48.436;10.298;2022-07-03T00:46:37;96536.78;;;16.31;nan
39141;BME280;24875;48.436;10.298;2022-07-03T00:49:06;96536.78;;;16.50;nan
39141;BME280;24875;48.436;10.298;2022-07-03T00:51:34;96540.28;;;16.38;nan
39141;BME280;24875;48.436;10.298;2022-07-03T00:54:03;96543.31;;;16.48;nan
39141;BME280;24875;48.436;10.298;2022-07-03T00:56:30;96540.47;;;16.56;nan
39141;BME280;24875;48.436;10.298;2022-07-03T00:58:59;96545.97;;;16.48;nan
39141;BME280;24875;48.436;10.298;2022-07-03T01:01:28;96539.84;;;16.41;nan
39141;BME280;24875;48.436;10.298;2022-07-03T01:04:07;96531.63;;;15.97;nan
39141;BME280;24875;48.436;10.298;2022-07-03T01:06:40;96540.22;;;16.25;nan
39141;BME280;24875;48.436;10.298;2022-07-03T01:09:07;96539.63;;;16.23;nan
39141;BME280;24875;48.436;10.298;2022-07-03T01:11:37;96534.53;;;16.41;nan
39141;BME280;24875;48.436;10.298;2022-07-03T01:14:15;96535.56;;;16.34;nan
39141;BME280;24875;48.436;10.298;2022-07-03T01:16:57;96538.59;;;16.24;nan
39141;BME280;24875;48.436;10.298;2022-07-03T01:19:36;96535.56;;;16.40;nan
39141;BME280;24875;48.436;10.298;2022-07-03T01:22:25;96532.31;;;16.38;nan
39141;BME280;24875;48.436;10.298;2022-07-03T01:27:58;96544.09;;;16.23;nan
39141;BME280;24875;48.436;10.298;2022-07-03T01:30:26;96542.66;;;16.14;nan
39141;BME280;24875;48.436;10.298;2022-07-03T01:32:57;96536.53;;;15.94;nan
39141;BME280;24875;48.436;10.298;2022-07-03T01:35:28;96527.34;;;16.03;nan
39141;BME280;24875;48.436;10.298;2022-07-03T01:38:01;96537.34;;;16.01;nan
39141;BME280;24875;48.436;10.298;2022-07-03T01:40:31;96530.78;;;15.90;nan
39141;BME280;24875;48.436;10.298;2022-07-03T01:43:02;96528.56;;;15.87;nan
39141;BME280;24875;48.436;10.298;2022-07-03T01:45:31;96532.84;;;15.88;nan
39141;BME280;24875;48.436;10.298;2022-07-03T01:47:58;96529.56;;;15.80;nan
39141;BME280;24875;48.436;10.298;2022-07-03T01:50:25;96529.38;;;15.94;nan
39141;BME280;24875;48.436;10.298;2022-07-03T01:52:54;96525.09;;;16.06;nan
39141;BME280;24875;48.436;10.298;2022-07-03T01:55:23;96528.75;;;15.92;nan
39141;BME280;24875;48.436;10.298;2022-07-03T01:57:50;96525.69;;;15.95;nan
39141;BME280;24875;48.436;10.298;2022-07-03T02:00:20;96516.50;;;16.04;nan
39141;BME280;24875;48.436;10.298;2022-07-03T02:02:54;96522.66;;;16.18;nan
39141;BME280;24875;48.436;10.298;2022-07-03T02:05:41;96521.00;;;16.10;nan
39141;BME280;24875;48.436;10.298;2022-07-03T02:08:14;96520.13;;;15.71;nan
39141;BME280;24875;48.436;10.298;2022-07-03T02:10:43;96517.50;;;15.78;nan
39141;BME280;24875;48.436;10.298;2022-07-03T02:13:16;96520.56;;;15.81;nan
39141;BME280;24875;48.436;10.298;2022-07-03T02:15:45;96514.84;;;15.90;nan
39141;BME280;24875;48.436;10.298;2022-07-03T02:18:25;96516.41;;;15.53;nan
39141;BME280;24875;48.436;10.298;2022-07-03T02:21:05;96523.50;;;15.33;nan
39141;BME280;24875;48.436;10.298;2022-07-03T02:23:38;96522.16;;;15.63;nan
39141;BME280;24875;48.436;10.298;2022-07-03T02:26:08;96533.22;;;15.85;nan
39141;BME280;24875;48.436;10.298;2022-07-03T02:28:51;96525.84;;;15.62;nan
39141;BME280;24875;48.436;10.298;2022-07-03T02:31:24;96524.56;;;15.45;nan
39141;BME280;24875;48.436;10.298;2022-07-03T02:33:55;96528.88;;;15.59;nan
39141;BME280;24875;48.436;10.298;2022-07-03T02:36:23;96527.47;;;15.63;nan
39141;BME280;24875;48.436;10.298;2022-07-03T02:38:55;96536.44;;;15.55;nan
39141;BME280;24875;48.436;10.298;2022-07-03T02:41:27;96521.72;;;15.53;nan
39141;BME280;24875;48.436;10.298;2022-07-03T02:43:59;96538.66;;;15.39;nan
39141;BME280;24875;48.436;10.298;2022-07-03T02:46:34;96535.34;;;15.30;nan
39141;BME280;24875;48.436;10.298;2022-07-03T02:49:21;96531.91;;;15.36;nan
39141;BME280;24875;48.436;10.298;2022-07-03T02:51:54;96538.44;;;15.40;nan
39141;BME280;24875;48.436;10.298;2022-07-03T02:54:24;96535.22;;;15.11;nan
39141;BME280;24875;48.436;10.298;2022-07-03T02:56:57;96543.19;;;15.11;nan
39141;BME280;24875;48.436;10.298;2022-07-03T02:59:35;96540.81;;;15.23;nan
39141;BME280;24875;48.436;10.298;2022-07-03T03:02:13;96542.84;;;15.21;nan
39141;BME280;24875;48.436;10.298;2022-07-03T03:04:44;96542.75;;;15.08;nan
39141;BME280;24875;48.436;10.298;2022-07-03T03:07:16;96547.28;;;15.14;nan
39141;BME280;24875;48.436;10.298;2022-07-03T03:09:47;96548.59;;;15.24;nan
39141;BME280;24875;48.436;10.298;2022-07-03T03:12:14;96558.00;;;15.26;nan
39141;BME280;24875;48.436;10.298;2022-07-03T03:14:43;96553.53;;;15.40;nan
39141;BME280;24875;48.436;10.298;2022-07-03T03:17:17;96543.59;;;15.55;nan
39141;BME280;24875;48.436;10.298;2022-07-03T03:19:46;96539.91;;;15.49;nan
39141;BME280;24875;48.436;10.298;2022-07-03T03:22:24;96540.97;;;15.68;nan
39141;BME280;24875;48.436;10.298;2022-07-03T03:24:54;96536.06;;;15.65;nan
39141;BME280;24875;48.436;10.298;2022-07-03T03:27:21;96545.22;;;15.49;nan
39141;BME280;24875;48.436;10.298;2022-07-03T03:29:48;96534.81;;;15.54;nan
39141;BME280;24875;48.436;10.298;2022-07-03T03:32:17;96545.91;;;15.71;nan
39141;BME280;24875;48.436;10.298;2022-07-03T03:34:45;96540.50;;;15.51;nan
39141;BME280;24875;48.436;10.298;2022-07-03T03:37:12;96547.41;;;15.39;nan
39141;BME280;24875;48.436;10.298;2022-07-03T03:39:39;96549.56;;;15.63;nan
39141;BME280;24875;48.436;10.298;2022-07-03T03:42:06;96545.47;;;15.67;nan
39141;BME280;24875;48.436;10.298;2022-07-03T03:44:33;96553.69;;;15.79;nan
39141;BME280;24875;48.436;10.298;2022-07-03T03:47:00;96562.22;;;15.74;nan
39141;BME280;24875;48.436;10.298;2022-07-03T03:49:29;96557.38;;;15.97;nan
39141;BME280;24875;48.436;10.298;2022-07-03T03:51:56;96559.22;;;15.90;nan
39141;BME280;24875;48.436;10.298;2022-07-03T03:54:23;96559.19;;;15.77;nan
39141;BME280;24875;48.436;10.298;2022-07-03T03:56:49;96563.47;;;15.72;nan
39141;BME280;24875;48.436;10.298;2022-07-03T03:59:16;96554.69;;;15.71;nan
39141;BME280;24875;48.436;10.298;2022-07-03T04:01:42;96555.47;;;15.72;nan
39141;BME280;24875;48.436;10.298;2022-07-03T04:04:11;96563.66;;;15.64;nan
39141;BME280;24875;48.436;10.298;2022-07-03T04:06:43;96575.16;;;15.77;nan
39141;BME280;24875;48.436;10.298;2022-07-03T04:09:10;96565.91;;;15.73;nan
39141;BME280;24875;48.436;10.298;2022-07-03T04:11:36;96567.34;;;15.69;nan
39141;BME280;24875;48.436;10.298;2022-07-03T04:14:03;96566.75;;;15.74;nan
39141;BME280;24875;48.436;10.298;2022-07-03T04:16:30;96563.06;;;15.68;nan
39141;BME280;24875;48.436;10.298;2022-07-03T04:18:56;96565.28;;;15.65;nan
39141;BME280;24875;48.436;10.298;2022-07-03T04:21:23;96562.25;;;15.87;nan
39141;BME280;24875;48.436;10.298;2022-07-03T04:23:50;96563.53;;;15.97;nan
39141;BME280;24875;48.436;10.298;2022-07-03T04:26:17;96565.34;;;15.90;nan
39141;BME280;24875;48.436;10.298;2022-07-03T04:28:44;96568.19;;;15.83;nan
39141;BME280;24875;48.436;10.298;2022-07-03T04:31:10;96567.63;;;16.00;nan
39141;BME280;24875;48.436;10.298;2022-07-03T04:33:37;96572.09;;;15.99;nan
39141;BME280;24875;48.436;10.298;2022-07-03T04:36:04;96565.59;;;16.21;nan
39141;BME280;24875;48.436;10.298;2022-07-03T04:38:30;96571.56;;;16.36;nan
39141;BME280;24875;48.436;10.298;2022-07-03T04:40:58;96575.44;;;16.66;nan
39141;BME280;24875;48.436;10.298;2022-07-03T04:43:25;96572.59;;;16.74;nan
39141;BME280;24875;48.436;10.298;2022-07-03T04:45:51;96573.81;;;16.65;nan
39141;BME280;24875;48.436;10.298;2022-07-03T04:48:18;96575.25;;;16.80;nan
39141;BME280;24875;48.436;10.298;2022-07-03T04:50:44;96579.50;;;16.88;nan
39141;BME280;24875;48.436;10.298;2022-07-03T04:53:10;96574.34;;;17.12;nan
39141;BME280;24875;48.436;10.298;2022-07-03T04:55:37;96583.16;;;17.25;nan
39141;BME280;24875;48.436;10.298;2022-07-03T04:58:05;96571.78;;;17.49;nan
39141;BME280;24875;48.436;10.298;2022-07-03T05:00:31;96575.00;;;17.71;nan
39141;BME280;24875;48.436;10.298;2022-07-03T05:02:58;96569.84;;;17.69;nan
39141;BME280;24875;48.436;10.298;2022-07-03T05:05:25;96572.03;;;17.85;nan
39141;BME280;24875;48.436;10.298;2022-07-03T05:07:52;96566.88;;;17.90;nan
39141;BME280;24875;48.436;10.298;2022-07-03T05:10:18;96574.97;;;18.08;nan
39141;BME280;24875;48.436;10.298;2022-07-03T05:12:44;96580.63;;;17.87;nan
39141;BME280;24875;48.436;10.298;2022-07-03T05:15:12;96584.56;;;18.22;nan
39141;BME280;24875;48.436;10.298;2022-07-03T05:17:39;96588.09;;;18.09;nan
39141;BME280;24875;48.436;10.298;2022-07-03T05:20:07;96598.31;;;18.19;nan
39141;BME280;24875;48.436;10.298;2022-07-03T05:22:54;96584.44;;;18.04;nan
39141;BME280;24875;48.436;10.298;2022-07-03T05:25:20;96592.06;;;18.31;nan
39141;BME280;24875;48.436;10.298;2022-07-03T05:27:47;96588.50;;;18.43;nan
39141;BME280;24875;48.436;10.298;2022-07-03T05:30:17;96593.97;;;18.79;nan
39141;BME280;24875;48.436;10.298;2022-07-03T05:32:43;96594.94;;;18.85;nan
39141;BME280;24875;48.436;10.298;2022-07-03T05:35:10;96594.75;;;18.80;nan
39141;BME280;24875;48.436;10.298;2022-07-03T05:37:36;96598.63;;;18.84;nan
39141;BME280;24875;48.436;10.298;2022-07-03T05:40:04;96596.97;;;18.89;nan
39141;BME280;24875;48.436;10.298;2022-07-03T05:42:30;96598.56;;;18.41;nan
39141;BME280;24875;48.436;10.298;2022-07-03T05:44:57;96599.06;;;18.56;nan
39141;BME280;24875;48.436;10.298;2022-07-03T05:47:25;96600.94;;;18.80;nan
39141;BME280;24875;48.436;10.298;2022-07-03T05:49:51;96595.59;;;18.80;nan
39141;BME280;24875;48.436;10.298;2022-07-03T05:52:18;96600.56;;;18.77;nan
39141;BME280;24875;48.436;10.298;2022-07-03T05:54:44;96597.31;;;18.68;nan
39141;BME280;24875;48.436;10.298;2022-07-03T05:57:11;96599.69;;;18.58;nan
39141;BME280;24875;48.436;10.298;2022-07-03T05:59:38;96599.25;;;18.86;nan
39141;BME280;24875;48.436;10.298;2022-07-03T06:02:05;96597.47;;;19.22;nan
39141;BME280;24875;48.436;10.298;2022-07-03T06:04:33;96600.03;;;19.35;nan
39141;BME280;24875;48.436;10.298;2022-07-03T06:06:59;96603.81;;;19.45;nan
39141;BME280;24875;48.436;10.298;2022-07-03T06:09:26;96593.38;;;19.55;nan
39141;BME280;24875;48.436;10.298;2022-07-03T06:11:52;96596.28;;;19.54;nan
39141;BME280;24875;48.436;10.298;2022-07-03T06:14:19;96598.06;;;19.59;nan
39141;BME280;24875;48.436;10.298;2022-07-03T06:16:45;96602.97;;;19.62;nan
39141;BME280;24875;48.436;10.298;2022-07-03T06:19:12;96606.09;;;19.77;nan
39141;BME280;24875;48.436;10.298;2022-07-03T06:21:40;96605.91;;;19.90;nan
39141;BME280;24875;48.436;10.298;2022-07-03T06:24:06;96604.34;;;20.01;nan
39141;BME280;24875;48.436;10.298;2022-07-03T06:26:33;96598.03;;;20.13;nan
39141;BME280;24875;48.436;10.298;2022-07-03T06:28:59;96604.06;;;20.09;nan
39141;BME280;24875;48.436;10.298;2022-07-03T06:31:25;96600.13;;;20.22;nan
39141;BME280;24875;48.436;10.298;2022-07-03T06:33:52;96598.72;;;20.49;nan
39141;BME280;24875;48.436;10.298;2022-07-03T06:36:18;96608.72;;;20.13;nan
39141;BME280;24875;48.436;10.298;2022-07-03T06:38:46;96593.59;;;20.48;nan
39141;BME280;24875;48.436;10.298;2022-07-03T06:41:13;96602.69;;;20.47;nan
39141;BME280;24875;48.436;10.298;2022-07-03T06:43:39;96605.03;;;20.55;nan
39141;BME280;24875;48.436;10.298;2022-07-03T06:46:05;96596.41;;;20.64;nan
39141;BME280;24875;48.436;10.298;2022-07-03T06:48:32;96598.22;;;20.82;nan
39141;BME280;24875;48.436;10.298;2022-07-03T06:50:59;96593.34;;;20.79;nan
39141;BME280;24875;48.436;10.298;2022-07-03T06:53:25;96591.47;;;20.90;nan
39141;BME280;24875;48.436;10.298;2022-07-03T06:55:53;96592.53;;;21.24;nan
39141;BME280;24875;48.436;10.298;2022-07-03T06:58:19;96590.75;;;21.29;nan
39141;BME280;24875;48.436;10.298;2022-07-03T07:00:46;96596.13;;;21.29;nan
39141;BME280;24875;48.436;10.298;2022-07-03T07:03:12;96593.44;;;21.41;nan
39141;BME280;24875;48.436;10.298;2022-07-03T07:05:39;96592.75;;;21.56;nan
39141;BME280;24875;48.436;10.298;2022-07-03T07:08:05;96604.28;;;21.57;nan
39141;BME280;24875;48.436;10.298;2022-07-03T07:10:32;96595.94;;;21.81;nan
39141;BME280;24875;48.436;10.298;2022-07-03T07:13:00;96593.44;;;22.03;nan
39141;BME280;24875;48.436;10.298;2022-07-03T07:15:26;96606.03;;;22.13;nan
39141;BME280;24875;48.436;10.298;2022-07-03T07:17:52;96596.22;;;22.07;nan
39141;BME280;24875;48.436;10.298;2022-07-03T07:20:19;96597.69;;;22.26;nan
39141;BME280;24875;48.436;10.298;2022-07-03T07:22:45;96594.78;;;22.28;nan
39141;BME280;24875;48.436;10.298;2022-07-03T07:25:12;96595.13;;;22.48;nan
39141;BME280;24875;48.436;10.298;2022-07-03T07:27:38;96601.84;;;22.78;nan
39141;BME280;24875;48.436;10.298;2022-07-03T07:30:07;96599.31;;;22.88;nan
39141;BME280;24875;48.436;10.298;2022-07-03T07:32:34;96601.28;;;23.09;nan
39141;BME280;24875;48.436;10.298;2022-07-03T07:35:01;96604.97;;;23.03;nan
39141;BME280;24875;48.436;10.298;2022-07-03T07:37:27;96602.59;;;22.90;nan
39141;BME280;24875;48.436;10.298;2022-07-03T07:39:53;96602.97;;;22.98;nan
39141;BME280;24875;48.436;10.298;2022-07-03T07:42:20;96596.47;;;22.94;nan
39141;BME280;24875;48.436;10.298;2022-07-03T07:44:46;96595.75;;;23.15;nan
39141;BME280;24875;48.436;10.298;2022-07-03T07:47:14;96596.56;;;23.32;nan
39141;BME280;24875;48.436;10.298;2022-07-03T07:49:41;96594.41;;;23.34;nan
39141;BME280;24875;48.436;10.298;2022-07-03T07:52:07;96600.91;;;23.54;nan
39141;BME280;24875;48.436;10.298;2022-07-03T07:54:33;96588.38;;;23.65;nan
39141;BME280;24875;48.436;10.298;2022-07-03T07:57:00;96592.19;;;23.85;nan
39141;BME280;24875;48.436;10.298;2022-07-03T07:59:26;96584.69;;;23.87;nan
39141;BME280;24875;48.436;10.298;2022-07-03T08:01:53;96583.81;;;23.82;nan
39141;BME280;24875;48.436;10.298;2022-07-03T08:04:38;96570.03;;;24.26;nan
39141;BME280;24875;48.436;10.298;2022-07-03T08:07:22;96576.78;;;24.28;nan
39141;BME280;24875;48.436;10.298;2022-07-03T08:09:48;96578.56;;;24.39;nan
39141;BME280;24875;48.436;10.298;2022-07-03T08:12:18;96576.19;;;24.43;nan
39141;BME280;24875;48.436;10.298;2022-07-03T08:14:45;96571.88;;;24.42;nan
39141;BME280;24875;48.436;10.298;2022-07-03T08:17:11;96571.97;;;24.56;nan
39141;BME280;24875;48.436;10.298;2022-07-03T08:19:39;96573.84;;;24.82;nan
39141;BME280;24875;48.436;10.298;2022-07-03T08:22:05;96578.16;;;24.83;nan
39141;BME280;24875;48.436;10.298;2022-07-03T08:24:32;96567.38;;;24.83;nan
39141;BME280;24875;48.436;10.298;2022-07-03T08:26:58;96574.06;;;24.76;nan
39141;BME280;24875;48.436;10.298;2022-07-03T08:29:25;96576.06;;;24.90;nan
39141;BME280;24875;48.436;10.298;2022-07-03T08:31:52;96572.59;;;24.95;nan
39141;BME280;24875;48.436;10.298;2022-07-03T08:34:19;96571.78;;;25.25;nan
39141;BME280;24875;48.436;10.298;2022-07-03T08:36:47;96572.72;;;25.51;nan
39141;BME280;24875;48.436;10.298;2022-07-03T08:39:13;96573.75;;;25.40;nan
39141;BME280;24875;48.436;10.298;2022-07-03T08:41:40;96567.50;;;25.76;nan
39141;BME280;24875;48.436;10.298;2022-07-03T08:44:08;96571.72;;;25.62;nan
39141;BME280;24875;48.436;10.298;2022-07-03T08:46:35;96568.63;;;25.38;nan
39141;BME280;24875;48.436;10.298;2022-07-03T08:49:02;96568.28;;;25.71;nan
39141;BME280;24875;48.436;10.298;2022-07-03T08:51:28;96569.63;;;25.74;nan
39141;BME280;24875;48.436;10.298;2022-07-03T08:53:59;96565.94;;;25.89;nan
39141;BME280;24875;48.436;10.298;2022-07-03T08:56:26;96567.16;;;25.67;nan
39141;BME280;24875;48.436;10.298;2022-07-03T08:58:53;96567.56;;;25.85;nan
39141;BME280;24875;48.436;10.298;2022-07-03T09:01:21;96568.03;;;25.73;nan
39141;BME280;24875;48.436;10.298;2022-07-03T09:03:48;96569.50;;;26.00;nan
39141;BME280;24875;48.436;10.298;2022-07-03T09:06:15;96568.72;;;26.14;nan
39141;BME280;24875;48.436;10.298;2022-07-03T09:08:43;96569.84;;;26.28;nan
39141;BME280;24875;48.436;10.298;2022-07-03T09:11:11;96570.63;;;26.19;nan
39141;BME280;24875;48.436;10.298;2022-07-03T09:13:38;96573.16;;;26.35;nan
39141;BME280;24875;48.436;10.298;2022-07-03T09:16:04;96561.44;;;26.10;nan
39141;BME280;24875;48.436;10.298;2022-07-03T09:18:38;96562.00;;;26.27;nan
39141;BME280;24875;48.436;10.298;2022-07-03T09:21:05;96563.88;;;26.21;nan
39141;BME280;24875;48.436;10.298;2022-07-03T09:23:35;96564.81;;;26.66;nan
39141;BME280;24875;48.436;10.298;2022-07-03T09:26:03;96572.63;;;26.43;nan
39141;BME280;24875;48.436;10.298;2022-07-03T09:28:46;96571.81;;;26.43;nan
39141;BME280;24875;48.436;10.298;2022-07-03T09:31:14;96569.94;;;26.58;nan
39141;BME280;24875;48.436;10.298;2022-07-03T09:33:51;96567.03;;;27.09;nan
39141;BME280;24875;48.436;10.298;2022-07-03T09:36:21;96568.38;;;27.07;nan
39141;BME280;24875;48.436;10.298;2022-07-03T09:38:47;96569.97;;;26.88;nan
39141;BME280;24875;48.436;10.298;2022-07-03T09:41:14;96581.91;;;27.16;nan
39141;BME280;24875;48.436;10.298;2022-07-03T09:43:42;96563.97;;;27.40;nan
39141;BME280;24875;48.436;10.298;2022-07-03T09:46:10;96573.47;;;27.38;nan
39141;BME280;24875;48.436;10.298;2022-07-03T09:48:39;96573.44;;;27.53;nan
39141;BME280;24875;48.436;10.298;2022-07-03T09:51:19;96562.41;;;27.24;nan
39141;BME280;24875;48.436;10.298;2022-07-03T09:53:54;96567.25;;;27.32;nan
39141;BME280;24875;48.436;10.298;2022-07-03T09:56:22;96564.25;;;27.59;nan
39141;BME280;24875;48.436;10.298;2022-07-03T09:59:09;96558.44;;;27.95;nan
39141;BME280;24875;48.436;10.298;2022-07-03T10:01:38;96559.72;;;28.17;nan
39141;BME280;24875;48.436;10.298;2022-07-03T10:04:13;96554.59;;;28.16;nan
39141;BME280;24875;48.436;10.298;2022-07-03T10:06:51;96550.75;;;28.12;nan
39141;BME280;24875;48.436;10.298;2022-07-03T10:09:19;96553.00;;;28.00;nan
39141;BME280;24875;48.436;10.298;2022-07-03T10:11:46;96545.97;;;27.94;nan
39141;BME280;24875;48.436;10.298;2022-07-03T10:14:14;96551.38;;;27.99;nan
39141;BME280;24875;48.436;10.298;2022-07-03T10:16:43;96540.47;;;28.19;nan
39141;BME280;24875;48.436;10.298;2022-07-03T10:19:13;96541.53;;;28.23;nan
39141;BME280;24875;48.436;10.298;2022-07-03T10:21:43;96537.69;;;28.33;nan
39141;BME280;24875;48.436;10.298;2022-07-03T10:24:11;96545.06;;;28.61;nan
39141;BME280;24875;48.436;10.298;2022-07-03T10:26:39;96536.59;;;28.30;nan
39141;BME280;24875;48.436;10.298;2022-07-03T10:29:08;96546.91;;;28.71;nan
39141;BME280;24875;48.436;10.298;2022-07-03T10:31:36;96545.25;;;28.36;nan
39141;BME280;24875;48.436;10.298;2022-07-03T10:34:04;96542.63;;;28.17;nan
39141;BME280;24875;48.436;10.298;2022-07-03T10:36:32;96534.88;;;28.43;nan
39141;BME280;24875;48.436;10.298;2022-07-03T10:39:05;96537.63;;;28.38;nan
39141;BME280;24875;48.436;10.298;2022-07-03T10:41:34;96537.75;;;28.62;nan
39141;BME280;24875;48.436;10.298;2022-07-03T10:44:18;96539.41;;;28.96;nan
39141;BME280;24875;48.436;10.298;2022-07-03T10:47:03;96535.81;;;28.67;nan
39141;BME280;24875;48.436;10.298;2022-07-03T10:49:31;96529.28;;;28.73;nan
39141;BME280;24875;48.436;10.298;2022-07-03T10:51:58;96535.13;;;28.90;nan
39141;BME280;24875;48.436;10.298;2022-07-03T10:54:27;96534.75;;;29.30;nan
39141;BME280;24875;48.436;10.298;2022-07-03T10:57:20;96534.88;;;29.71;nan
39141;BME280;24875;48.436;10.298;2022-07-03T11:00:17;96522.16;;;29.90;nan
39141;BME280;24875;48.436;10.298;2022-07-03T11:02:46;96526.88;;;29.28;nan
39141;BME280;24875;48.436;10.298;2022-07-03T11:05:25;96524.38;;;29.83;nan
39141;BME280;24875;48.436;10.298;2022-07-03T11:08:10;96521.47;;;30.21;nan
39141;BME280;24875;48.436;10.298;2022-07-03T11:10:39;96524.50;;;29.73;nan
39141;BME280;24875;48.436;10.298;2022-07-03T11:13:17;96520.63;;;29.79;nan
39141;BME280;24875;48.436;10.298;2022-07-03T11:15:47;96528.06;;;29.17;nan
39141;BME280;24875;48.436;10.298;2022-07-03T11:18:17;96518.59;;;29.15;nan
39141;BME280;24875;48.436;10.298;2022-07-03T11:21:03;96509.94;;;29.64;nan
39141;BME280;24875;48.436;10.298;2022-07-03T11:23:36;96515.78;;;30.00;nan
39141;BME280;24875;48.436;10.298;2022-07-03T11:26:20;96512.09;;;30.51;nan
39141;BME280;24875;48.436;10.298;2022-07-03T11:28:48;96512.09;;;30.51;nan
39141;BME280;24875;48.436;10.298;2022-07-03T11:31:16;96516.13;;;30.53;nan
39141;BME280;24875;48.436;10.298;2022-07-03T11:33:43;96507.69;;;29.71;nan
39141;BME280;24875;48.436;10.298;2022-07-03T11:36:23;96500.91;;;29.51;nan
39141;BME280;24875;48.436;10.298;2022-07-03T11:39:02;96500.44;;;30.09;nan
39141;BME280;24875;48.436;10.298;2022-07-03T11:41:44;96497.22;;;30.25;nan
39141;BME280;24875;48.436;10.298;2022-07-03T11:44:18;96496.16;;;30.44;nan
39141;BME280;24875;48.436;10.298;2022-07-03T11:46:50;96488.72;;;30.50;nan
39141;BME280;24875;48.436;10.298;2022-07-03T11:49:17;96488.94;;;30.35;nan
39141;BME280;24875;48.436;10.298;2022-07-03T11:51:56;96488.72;;;30.50;nan
39141;BME280;24875;48.436;10.298;2022-07-03T11:54:22;96486.94;;;30.59;nan
39141;BME280;24875;48.436;10.298;2022-07-03T11:56:49;96494.19;;;30.82;nan
39141;BME280;24875;48.436;10.298;2022-07-03T11:59:15;96477.56;;;31.15;nan
39141;BME280;24875;48.436;10.298;2022-07-03T12:01:43;96486.22;;;30.72;nan
39141;BME280;24875;48.436;10.298;2022-07-03T12:04:12;96498.50;;;30.51;nan
39141;BME280;24875;48.436;10.298;2022-07-03T12:06:40;96486.88;;;30.45;nan
39141;BME280;24875;48.436;10.298;2022-07-03T12:09:19;96476.66;;;30.56;nan
39141;BME280;24875;48.436;10.298;2022-07-03T12:12:04;96477.84;;;31.00;nan
39141;BME280;24875;48.436;10.298;2022-07-03T12:14:39;96484.63;;;31.02;nan
39141;BME280;24875;48.436;10.298;2022-07-03T12:17:08;96484.00;;;31.05;nan
39141;BME280;24875;48.436;10.298;2022-07-03T12:19:35;96482.97;;;31.73;nan
39141;BME280;24875;48.436;10.298;2022-07-03T12:22:02;96489.97;;;31.21;nan
39141;BME280;24875;48.436;10.298;2022-07-03T12:24:30;96475.97;;;31.27;nan
39141;BME280;24875;48.436;10.298;2022-07-03T12:27:01;96476.72;;;31.73;nan
39141;BME280;24875;48.436;10.298;2022-07-03T12:29:28;96476.13;;;31.89;nan
39141;BME280;24875;48.436;10.298;2022-07-03T12:31:55;96472.41;;;31.58;nan
39141;BME280;24875;48.436;10.298;2022-07-03T12:34:22;96471.25;;;31.46;nan
39141;BME280;24875;48.436;10.298;2022-07-03T12:36:56;96473.09;;;31.64;nan
39141;BME280;24875;48.436;10.298;2022-07-03T12:39:23;96465.41;;;31.39;nan
39141;BME280;24875;48.436;10.298;2022-07-03T12:41:51;96465.63;;;31.83;nan
39141;BME280;24875;48.436;10.298;2022-07-03T12:44:17;96454.44;;;31.71;nan
39141;BME280;24875;48.436;10.298;2022-07-03T12:46:46;96454.22;;;31.54;nan
39141;BME280;24875;48.436;10.298;2022-07-03T12:49:14;96443.69;;;32.01;nan
39141;BME280;24875;48.436;10.298;2022-07-03T12:51:42;96443.72;;;31.88;nan
39141;BME280;24875;48.436;10.298;2022-07-03T12:54:11;96445.22;;;31.67;nan
39141;BME280;24875;48.436;10.298;2022-07-03T12:56:38;96436.31;;;31.88;nan
39141;BME280;24875;48.436;10.298;2022-07-03T12:59:07;96440.09;;;32.27;nan
39141;BME280;24875;48.436;10.298;2022-07-03T13:01:42;96439.38;;;31.87;nan
39141;BME280;24875;48.436;10.298;2022-07-03T13:04:09;96438.41;;;31.56;nan
39141;BME280;24875;48.436;10.298;2022-07-03T13:06:39;96432.00;;;32.01;nan
39141;BME280;24875;48.436;10.298;2022-07-03T13:09:06;96433.91;;;31.87;nan
39141;BME280;24875;48.436;10.298;2022-07-03T13:11:34;96427.16;;;32.33;nan
39141;BME280;24875;48.436;10.298;2022-07-03T13:14:08;96427.75;;;32.87;nan
39141;BME280;24875;48.436;10.298;2022-07-03T13:16:37;96427.75;;;33.09;nan
39141;BME280;24875;48.436;10.298;2022-07-03T13:19:05;96425.88;;;32.52;nan
39141;BME280;24875;48.436;10.298;2022-07-03T13:21:31;96426.63;;;31.82;nan
39141;BME280;24875;48.436;10.298;2022-07-03T13:23:58;96418.50;;;32.17;nan
39141;BME280;24875;48.436;10.298;2022-07-03T13:26:24;96428.34;;;31.92;nan